Teherán, Irán

12:44 PM +0430 en Marzo 28, 2017 (GMT +0430)
Mehrabad International | | Change Station

Alt 3907 ft 35.68 °N, 51.35 °E | Updated 14 minutes ago

Scattered Clouds
Nubes dispersas
64 ° F
Sensación térmica 64 ° F
N
14
Viento Variable Viento desde OSO

Hoy
Alta -- | Baja -- ° F
--% Posibilidad de precipitaciones
Ayer
Alta -- | Baja -- ° F
Precip. -- pul
Presión 30.06 pul
Visibilidad 6.2 Millas
Nubes Baja 4000 ft
Nubes dispersas 20000 ft
Punto de rocío 23 ° F
Humedad 21%
Precipitaciones 0.00 pul
Espesor de la nieve No disponible.
6:56 AM 7:22 PM
Luna nueva, 0% visible
METAR OIII 280800Z 24012KT 9999 FEW040 SCT200 18/M05 Q1018 A3007 NOSIG
Presión 30.06 pul
Visibilidad 6.2 Millas
Nubes Baja 4000 ft
Nubes dispersas 20000 ft
Punto de rocío 23 ° F
Humedad 21%
Precipitaciones 0.00 pul
Espesor de la nieve No disponible.
6:56 AM 7:22 PM
Luna nueva, 0% visible
METAR OIII 280800Z 24012KT 9999 FEW040 SCT200 18/M05 Q1018 A3007 NOSIG

Get Severe Weather Alerts

Thanks for signing up!

Be on the lookout for a verification email in your inbox.

You'll start receiving the daily forecast at 8 AM.

×

10-Day Weather Forecast

No radar image for this location.
×

Almanac

Astronomía

Mar. 28, 2017 Salida Puesta
Hora real
Crepúsculo civil
Crepúsculo náutico
Crepúsculo astronómico
Luna
Horas de luz
Horas de luz
Tomorrow will be .
, % of the Moon is Illuminated

Extremos de hoy

Máximos del país Bajas del país

Community

WunderPhotos

Upload Photos

1,962,540 ¡fotos cargadas!

WunderBlog® & News

Nearby

Calidad del aire

  Calidad del aire Índice AQ Contaminante
Not available.

Grosos de nieve

Estación Profundido Altura

Actividad de terremotos

Ciudad Distance Mag. Tiempo y dato
Magnitud mínima muestra es 2,5.

Actividad de terremotos

Ciudad Distance Mag. Tiempo y dato
Magnitud mínima muestra es 2,5.

Temperaturas de aguas costeras

Lugar Temperatura

Stations

Estaciones meteorológicas cercanas

Ubicación de la estación Temp. Vientos helados Punto de rocío Humedad Viento Precip. Alt Actualizado Tipo